Hlavní strana
METAR-TAF:

METAR-TAF

Letiště :

Popayán, Kolumbie

zeměpisná šířka: 02-27-15N, zeměpisná délka: 076-36-35W, výška: 1733 m

Aktuální stav počasí

Zpráva byla vytvořena před 9 hodinami a 3 minutami, v 14:00 UTC
Bezvětří
Teplota 18°C
Vlhkost vzduchu 94%
Tlak 1020 hPa
Viditelnost: 4000 m
Polojasno ve výšce 700 ft
Oblačno až skoro zataženo ve výšce 3000 ft
kouřmo

METAR: SKPP 121400Z 00000KT 4000 BR SCT007 BKN030 18/17 Q1020 RMK A3012

Čas: 18:03 (23:03 UTC)


TAF: chybějící

Stav a předpovědi počasí z více než 4 000 letišť (zprávy METAR a TAF).

Červené a žluté tečky na mapě představují dostupné meteorologické stanice.

Když kurzor umístíte na tečku, zobrazí se název stanice.

Pak kliknutím zobrazíte stav a předpověď počasí.

Chcete-li změnit mapu, kliknutím na zelené tlačítko se znaménkem +mapu přiblížíte, kliknutím na zelené tlačítko se znaménkem – mapu oddálíte a kliknutím na zelené šipky přejdete na sousední mapy.


METAR-TAF: